Racecast

Alex Young

Hilltop Speed (CA) · - · Compare head to head

Athlete rating 112.9 2012 TF season
Best race 112.9 TF
Races 117
Seasons 8 2010 — 2018

RankedNation #33423·WI #942·WI D1 #912·FVA #42·Team #3 ?

Speed rating — all races

Track & Field

TF speed rating

2018 TF

Hilltop Speed (CA) · Grade -

Date Meet Event Result Place Rating Difficulty PR/SR Flags
2018-07-15 California State Games 400m 55.45 12th · 1st on team -0.026
2018-06-14 AAU Region 22 JO Qualifier 400m 54.58 7th · 1st on team -0.030
2018-06-10 Pacific Association Championships (Youth) 400m 53.74 3rd · 1st on team -0.036 ★PR SR

2017 TF

Hilltop Speed (CA) · Grade -

Date Meet Event Result Place Rating Difficulty PR/SR Flags
2017-07-16 California State Games 200m 26.09 14th · 1st on team -0.015
2017-07-16 California State Games 3000m-rw 22:01.95 1st · 1st on team -0.015 ★PR SR
2017-07-16 California State Games 400m 56.23 5th · 1st on team -0.015
2017-07-02 AAU West Coast National Championship 200m 26.17 28th · 1st on team -0.001
2017-07-02 AAU West Coast National Championship 400m 56.03 9th · 1st on team -0.001 PR SR
2017-07-02 AAU West Coast National Championship 100m 12.86 29th · 1st on team -0.001 ★PR SR
2017-06-16 2017 AAU Region 22 Junior Olympics 400m 57.12 7th · 1st on team -0.023 PR SR
2017-06-16 2017 AAU Region 22 Junior Olympics 200m 26.08 9th · 1st on team -0.023 ★PR SR

2015 TF

Hilltop Speed (CA) · Grade -

Date Meet Event Result Place Rating Difficulty PR/SR Flags
2015-06-21 USATF Pacific Association Junior Olympic Championships 200m 28.27 37th · 3rd on team -0.031
2015-06-21 USATF Pacific Association Junior Olympic Championships 400m 1:00.88 28th · 3rd on team -0.031 SR
2015-06-21 USATF Pacific Association Junior Olympic Championships 100m 13.95 41st · 3rd on team -0.031
2015-05-31 PAC (Pacific Association Youth Champions 200m 27.46 35th · 3rd on team -0.024 PR SR
2015-05-31 PAC (Pacific Association Youth Champions 400m 1:01.11 21st · 3rd on team -0.024 SR
2015-05-23 LA Jets 2015 Invitational 100m 14.49 70th · 3rd on team -0.035
2015-05-23 LA Jets 2015 Invitational 400m 1:02.37 46th · 3rd on team -0.035
2015-05-16 3M Track Club Track and Field Invitation 400m 1:02.84 31st · 3rd on team -0.028
2015-05-16 3M Track Club Track and Field Invitation 100m 14.37 47th · 3rd on team -0.028
2015-05-16 3M Track Club Track and Field Invitation 200m 28.77 37th · 3rd on team -0.028
2015-04-25 Revolution Express Track Club 400m 1:01.6 6th · 3rd on team -0.024 SR
2015-04-25 Revolution Express Track Club 200m 27.83 9th · 2nd on team -0.024 PR SR
2015-04-18 CA Track Club 400m 1:05.18 11th · 2nd on team -0.038
2015-04-18 CA Track Club 200m 29.01 14th · 2nd on team -0.038
2015-04-18 CA Track Club 100m 13.99 12th · 2nd on team -0.038
2015-04-11 Big Valley Track Club Invitational 400m 1:03.86 19th · 2nd on team -0.027 SR
2015-04-11 Big Valley Track Club Invitational 100m 14 33rd · 3rd on team -0.027
2015-03-28 Contra Costa Cheetahs 100m 13.75 26th · 3rd on team -0.017 PR SR
2015-03-28 Contra Costa Cheetahs 200m 28.48 25th · 3rd on team -0.017 PR SR
2015-03-21 RPM Legacy 400m 1:04.22 29th · 3rd on team -0.020 SR
2015-03-21 RPM Legacy 100m 14.18 43rd · 3rd on team -0.020 SR

2014 TF

Hilltop Speed (CA) · Grade -

Date Meet Event Result Place Rating Difficulty PR/SR Flags
2014-07-11 California Games 100m 14.06 35th · 1st on team -0.027
2014-07-11 California Games 400m 1:05.38 22nd · 1st on team -0.027
2014-07-11 California Games 200m 28.78 28th · 1st on team -0.027
2014-06-20 USATF Pacific Assoc. Junior Olympics (Top 8) 100m 14.33 28th · 3rd on team -0.031
2014-06-20 USATF Pacific Assoc. Junior Olympics (Top 8) 200m 29.1 34th · 2nd on team -0.031
2014-05-31 Pacific Association Championships (PAC) 200m 32.23 45th · 3rd on team -0.024
2014-05-31 Pacific Association Championships (PAC) 400m 1:03.69 21st · 1st on team -0.024 SR
2014-05-31 Pacific Association Championships (PAC) 100m 14.54 36th · 2nd on team -0.024
2014-05-25 Los Angeles Jets Invitational 100m 14.41 79th · 2nd on team -0.027
2014-05-25 Los Angeles Jets Invitational 400m 1:03.82 58th · 2nd on team -0.027 SR
2014-05-10 Hampton Phillips Classic TC sectional 100m 14.7 21st · 2nd on team -0.033
2014-04-26 Revolution Express TC 400m 1:04.7 16th · 1st on team -0.024 SR
2014-04-26 Revolution Express TC 100m 14.66 15th · 1st on team -0.024
2014-04-26 Revolution Express TC 200m 28.98 11th · 1st on team -0.024
2014-04-12 Stocton Saints 400m 1:06.06 7th · 2nd on team -0.027
2014-04-12 Stocton Saints 200m 28.53 15th · 2nd on team -0.027 PR SR
2014-04-05 Sacramento Speed Showcase 100m 13.83 32nd · 1st on team -0.033 PR SR
2014-04-05 Sacramento Speed Showcase 400m 1:05.9 24th · 1st on team -0.033 SR
2014-03-29 East County Cheetahs TC 100m 14.59 24th · 2nd on team -0.017 SR

2013 TF

Hilltop Speed (CA) · Grade -

Date Meet Event Result Place Rating Difficulty PR/SR Flags
2013-07-12 Track City Classic 200m 29.77 22nd · 1st on team -0.035
2013-07-12 Track City Classic 100m 14.64 22nd · 1st on team -0.035
2013-07-12 Track City Classic 400m 1:08.48 22nd · 1st on team -0.035
2013-07-06 Region 14 Junior Olympics T&F (2-day) 400m 1:05.59 7th · 1st on team -0.035
2013-06-21 Pacific Association Junior Olympics (3-day) 400m 1:06.79 18th · 1st on team -0.035
2013-06-21 Pacific Association Junior Olympics (3-day) 200m 29.96 28th · 2nd on team -0.035
2013-06-08 Pacific Association Youth Championship (PAC) - 2-day meet 100m 14.5 23rd · 1st on team -0.024
2013-06-08 Pacific Association Youth Championship (PAC) - 2-day meet 400m 1:06.81 10th · 1st on team -0.024
2013-06-08 Pacific Association Youth Championship (PAC) - 2-day meet 200m 29.9 22nd · 2nd on team -0.024
2013-06-01 100 Black Men Tommie Smith 100m 14.37 18th · 2nd on team -0.036 PR SR
2013-06-01 100 Black Men Tommie Smith 200m 29.52 11th · 2nd on team -0.036
2013-06-01 100 Black Men Tommie Smith 400m 1:07.21 8th · 2nd on team -0.036
2013-05-25 Central Valley Roadrunners (2-day meet) 200m 29.15 11th · 1st on team -0.026
2013-05-25 Central Valley Roadrunners (2-day meet) 400m 1:08.35 5th · 1st on team -0.026
2013-05-25 Central Valley Roadrunners (2-day meet) 200m 29.17 12th · 2nd on team -0.026
2013-05-18 3M Track Club 400m 1:06.29 12th · 1st on team -0.028
2013-05-04 Hercules / Running Rebels (2-day) 400m 1:05.23 8th · 1st on team -0.038 SR
2013-04-27 Revolution Express Track Club 200m 29.69 10th · 1st on team -0.024
2013-04-27 Revolution Express Track Club 100m 14.58 18th · 2nd on team -0.024 PR SR
2013-04-27 Revolution Express Track Club 400m 1:07.49 10th · 1st on team -0.024
2013-04-20 Shor / Sheppard Classic 200m 29.1 15th · 1st on team -0.023 PR SR
2013-04-20 Shor / Sheppard Classic 100m 14.64 30th · 2nd on team -0.023 PR SR
2013-04-13 CA Track Club 200m 30.4 8th · 1st on team -0.038
2013-04-13 CA Track Club 400m 1:05.29 2nd · 1st on team -0.038 SR
2013-04-06 Sacramento Speed Showcase 200m 30.4 15th · 1st on team -0.031 SR
2013-04-06 Sacramento Speed Showcase 400m 1:05.44 7th · 1st on team -0.031 SR
2013-04-06 Sacramento Speed Showcase 100m 14.88 25th · 2nd on team -0.031
2013-03-30 Stockton Saints 100m 14.77 28th · 1st on team -0.016 SR
2013-02-17 Run For the Dream 55m 8.47 9th · 1st on team -0.025 ★PR SR

2012 TF 104.1

Hilltop Speed (CA) · Grade 12

Date Meet Event Result Place Rating Difficulty PR/SR Flags
2012-06-15 AAU Area 23 National Qualifier 100m 14.68 8th · 1st on team -0.025 PR SR
2012-06-15 AAU Area 23 National Qualifier 400m 1:05.97 3rd · 1st on team -0.025 SR
2012-06-15 AAU Area 23 National Qualifier 200m 29.6 6th · 1st on team -0.025 PR SR
2012-06-09 Pacific Association Youth Championships 400m 1:06.79 4th · 1st on team -0.035 SR
2012-06-09 Pacific Association Youth Championships 200m 29.66 19th · 3rd on team -0.035 PR SR
2012-05-21 WIAA Division 1 Track & Field Regional 800m 2:14.73 15th · 3rd on team 112.6 -0.024
2012-05-05 Hercules Running Rebels / Top Pacers Invitational 400m 1:12.09 26th · 4th on team -0.038
2012-05-05 Hercules Running Rebels / Top Pacers Invitational 200m 30.06 29th · 2nd on team -0.038 PR SR
2012-05-03 Seymour Invitational 800m 2:14.52 10th · 2nd on team 112.9 -0.022 ★PR ★R SR RSR
2012-04-21 Shor / Sheppard Classic 400m 1:11.95 23rd · 2nd on team -0.023
2012-04-21 Shor / Sheppard Classic 100m 14.74 33rd · 2nd on team -0.023 PR SR
2012-04-14 CA Spring Fling Track Invitational 200m 30.14 5th · 1st on team -0.038 PR SR
2012-04-14 CA Spring Fling Track Invitational 400m 1:09.04 2nd · 1st on team -0.038 SR
2012-04-14 CA Spring Fling Track Invitational 100m 14.87 6th · 1st on team -0.038 PR SR
2012-04-07 Phenom Elite 100m 14.9 37th · 3rd on team -0.022 PR SR
2012-04-07 Phenom Elite 400m 1:09.23 18th · 2nd on team -0.022 SR
2012-03-24 Revolution Express Track Club 400m 1:11.65 11th · 1st on team -0.024 SR
2012-03-24 Revolution Express Track Club 200m 30.86 10th · 1st on team -0.024 PR SR
2012-03-24 Revolution Express Track Club 100m 15.04 12th · 1st on team -0.024 PR SR
2012-01-21 Run for the Dream 800m 2:54.28 11th · 1st on team 86.9 -0.025 SR RSR
2012-01-21 Run for the Dream 55m 8.73 21st · 1st on team -0.025 PR SR

2011 TF 91.8

Hilltop Speed (CA) · Grade 11

Date Meet Event Result Place Rating Difficulty PR/SR Flags
2011-07-08 Region 14 USATF Junior Olympic T&F Championships 800m 2:48.55 6th · 1st on team 89.9 -0.024
2011-06-11 PA USATF Youth Championships (PAC) 200m 32.13 24th · 1st on team -0.028
2011-06-11 PA USATF Youth Championships (PAC) 400m 1:15.21 15th · 1st on team -0.028
2011-05-19 FVA JV Meet 400m 59.06 22nd · 5th on team -0.026 PR SR
2011-05-19 FVA JV Meet 800m 2:20.38 20th · 3rd on team 107.7 -0.026 PR R SR RSR
2011-05-14 3M Track Club Invitational 800m 2:50.72 4th · 1st on team 88.6 -0.028
2011-05-14 3M Track Club Invitational 400m 1:13.94 8th · 1st on team -0.028 PR SR
2011-04-30 Tommie Smith Youth Track Meet 200m 31.1 4th · 1st on team -0.036 PR SR
2011-04-30 Tommie Smith Youth Track Meet 800m 2:48.3 1st · 1st on team 89.1 -0.036
2011-04-15 CA Track Club Invitational Meet 200m 31.42 13th · 1st on team -0.033 PR SR
2011-04-15 CA Track Club Invitational Meet 800m 2:48.12 2nd · 1st on team 89.3 -0.033 PR R SR RSR
2011-02-27 Run for the Dream 800m 2:56.34 2nd · 1st on team 85.9 -0.025 SR RSR

2010 TF 86.4

Hilltop Speed (CA) · Grade 10

Date Meet Event Result Place Rating Difficulty PR/SR Flags
2010-05-29 LA Jets Invitational 400m 1:20.25 67th · 1st on team -0.035
2010-05-29 LA Jets Invitational 100m 15.94 71st · 1st on team -0.035 PR SR
2010-05-01 UMOJA 400m 1:18.05 14th · 1st on team -0.016 PR SR
2010-05-01 UMOJA 800m 2:56.28 4th · 1st on team 86.4 -0.016 PR R SR RSR